Time;durP1;ratioP1;P1;durP2;ratioP2;P2;SDS_P1;SDS_P2;PMS_P1;PMS_P2;Temp;Humidity;BMP_temperature;BMP_pressure;BME280_temperature;BME280_humidity;BME280_pressure;Samples;Min_cycle;Max_cycle;Signal;HPM_P1;HPM_P2
2023/12/16 00:01:14;;;;;;;11.10;5.53;;;;;;;5.58;100.00;100327.91;2623561;28;20035;-94
2023/12/16 00:02:29;;;;;;;10.85;5.32;;;;;;;5.60;100.00;100329.72;2624282;28;20501;-94
2023/12/16 00:03:45;;;;;;;13.55;5.82;;;;;;;5.56;100.00;100330.50;2624451;28;20052;-94
2023/12/16 00:05:01;;;;;;;14.57;5.88;;;;;;;5.37;100.00;100339.56;2624303;28;20048;-95
2023/12/16 00:06:20;;;;;;;13.77;5.65;;;;;;;5.33;100.00;100338.63;2628868;28;20145;-95
2023/12/16 00:07:35;;;;;;;13.27;5.57;;;;;;;5.41;100.00;100336.19;2625968;28;20139;-94
2023/12/16 00:08:51;;;;;;;11.32;5.50;;;;;;;5.55;100.00;100343.44;2630157;28;20040;-94
2023/12/16 00:10:07;;;;;;;8.45;4.22;;;;;;;5.15;100.00;100340.78;2624186;28;20056;-95
2023/12/16 00:11:22;;;;;;;10.85;4.90;;;;;;;5.28;100.00;100342.84;2608489;28;20049;-94
2023/12/16 00:12:38;;;;;;;13.32;5.93;;;;;;;5.55;100.00;100344.34;2604427;28;20086;-94
2023/12/16 00:13:54;;;;;;;8.82;4.50;;;;;;;5.60;100.00;100344.44;2612874;28;20109;-95
2023/12/16 00:15:11;;;;;;;9.48;4.85;;;;;;;5.35;100.00;100346.44;2620922;28;20036;-95
2023/12/16 00:16:26;;;;;;;11.27;5.20;;;;;;;5.41;100.00;100349.19;2630232;28;20044;-94
2023/12/16 00:17:42;;;;;;;10.00;5.03;;;;;;;5.40;100.00;100339.63;2630454;28;20051;-94
2023/12/16 00:18:58;;;;;;;10.30;4.30;;;;;;;5.30;100.00;100348.03;2624024;28;20048;-96
2023/12/16 00:20:13;;;;;;;10.10;5.13;;;;;;;5.44;100.00;100336.25;2624147;28;20522;-95
2023/12/16 00:21:29;;;;;;;9.77;4.55;;;;;;;5.19;100.00;100337.41;2624382;28;20139;-94
2023/12/16 00:22:45;;;;;;;10.82;5.28;;;;;;;5.19;100.00;100338.28;2625897;28;20044;-95
2023/12/16 00:24:01;;;;;;;11.68;5.50;;;;;;;5.31;100.00;100332.50;2626334;28;20040;-94
2023/12/16 00:25:17;;;;;;;11.48;5.20;;;;;;;5.27;100.00;100335.00;2620081;28;20036;-94
2023/12/16 00:26:33;;;;;;;9.07;4.68;;;;;;;5.27;100.00;100341.06;2623641;28;20043;-95
2023/12/16 00:27:49;;;;;;;12.20;5.07;;;;;;;5.32;100.00;100347.25;2621150;28;20491;-95
2023/12/16 00:29:04;;;;;;;10.60;4.72;;;;;;;5.39;100.00;100348.28;2623503;28;20070;-95
2023/12/16 00:30:20;;;;;;;10.40;5.15;;;;;;;5.43;100.00;100339.72;2615827;28;20097;-94
2023/12/16 00:31:36;;;;;;;9.90;4.55;;;;;;;5.47;100.00;100336.34;2625544;28;20254;-94
2023/12/16 00:32:51;;;;;;;9.30;5.00;;;;;;;5.58;100.00;100338.31;2631734;28;20507;-94
2023/12/16 00:34:07;;;;;;;10.30;4.47;;;;;;;5.68;100.00;100334.22;2636217;28;20100;-94
2023/12/16 00:35:22;;;;;;;9.35;5.13;;;;;;;5.65;100.00;100335.88;2631114;28;20036;-94
2023/12/16 00:36:38;;;;;;;9.10;4.80;;;;;;;5.68;100.00;100327.28;2630861;28;20058;-94
2023/12/16 00:37:53;;;;;;;8.43;4.90;;;;;;;5.76;100.00;100325.75;2629726;28;20068;-94
2023/12/16 00:39:09;;;;;;;8.73;4.47;;;;;;;5.58;100.00;100338.31;2625900;28;20055;-95
2023/12/16 00:40:25;;;;;;;9.25;4.28;;;;;;;5.76;100.00;100341.34;2620909;28;20040;-95
2023/12/16 00:41:41;;;;;;;9.38;4.50;;;;;;;5.58;100.00;100338.31;2622714;28;20043;-93
2023/12/16 00:42:57;;;;;;;9.48;4.53;;;;;;;5.56;100.00;100338.28;2625878;28;20104;-94
2023/12/16 00:44:12;;;;;;;8.18;4.15;;;;;;;5.60;100.00;100337.50;2632624;28;20047;-94
2023/12/16 00:45:28;;;;;;;9.23;4.63;;;;;;;5.48;100.00;100343.31;2632356;28;20097;-94
2023/12/16 00:46:44;;;;;;;8.30;4.00;;;;;;;5.66;100.00;100344.56;2632006;28;20050;-94
2023/12/16 00:47:59;;;;;;;6.93;3.78;;;;;;;5.42;100.00;100352.69;2625416;28;20055;-96
2023/12/16 00:49:15;;;;;;;8.38;4.03;;;;;;;5.42;100.00;100360.47;2625681;28;20058;-94
2023/12/16 00:50:31;;;;;;;8.90;4.55;;;;;;;5.48;100.00;100358.00;2625739;28;20088;-95
2023/12/16 00:51:46;;;;;;;9.27;4.63;;;;;;;5.59;100.00;100358.28;2624953;28;20068;-93
2023/12/16 00:53:02;;;;;;;12.27;5.05;;;;;;;5.62;100.00;100353.16;2614556;28;20047;-94
2023/12/16 00:54:17;;;;;;;8.85;4.57;;;;;;;5.59;100.00;100353.09;2619143;28;20048;-94
2023/12/16 00:55:33;;;;;;;9.95;4.30;;;;;;;5.87;100.00;100345.91;2625390;28;20099;-95
2023/12/16 00:56:50;;;;;;;11.05;4.70;;;;;;;5.75;100.00;100349.09;2625154;28;20459;-94
2023/12/16 00:58:05;;;;;;;11.93;4.78;;;;;;;5.78;100.00;100347.44;2625146;28;20076;-95
2023/12/16 00:59:22;;;;;;;8.52;4.40;;;;;;;5.58;100.00;100351.28;2631468;28;20486;-94
2023/12/16 01:00:38;;;;;;;10.40;4.47;;;;;;;5.44;100.00;100344.06;2625741;28;20114;-94
2023/12/16 01:01:55;;;;;;;8.35;4.63;;;;;;;5.53;100.00;100348.63;2621039;28;20072;-94
2023/12/16 01:03:10;;;;;;;9.00;4.43;;;;;;;5.74;100.00;100345.63;2619280;28;20054;-95
2023/12/16 01:04:26;;;;;;;9.80;4.25;;;;;;;5.75;100.00;100343.91;2625247;28;20048;-96
2023/12/16 01:05:43;;;;;;;8.85;4.30;;;;;;;5.55;100.00;100343.44;2625983;28;20483;-96
2023/12/16 01:06:59;;;;;;;7.60;4.30;;;;;;;5.69;100.00;100330.78;2625518;28;20105;-95
2023/12/16 01:08:15;;;;;;;10.57;4.35;;;;;;;5.45;100.00;100327.66;2625095;28;20040;-94
2023/12/16 01:09:31;;;;;;;8.40;4.40;;;;;;;5.39;100.00;100332.69;2631765;28;20138;-94
2023/12/16 01:10:47;;;;;;;8.80;4.55;;;;;;;5.44;100.00;100331.06;2631850;28;20048;-94
2023/12/16 01:12:02;;;;;;;8.38;4.18;;;;;;;5.41;100.00;100325.81;2621137;28;20037;-94
2023/12/16 01:13:18;;;;;;;12.38;4.63;;;;;;;5.45;100.00;100325.06;2618659;28;20145;-94
2023/12/16 01:14:34;;;;;;;8.43;4.05;;;;;;;5.45;100.00;100326.75;2632134;28;20032;-94
2023/12/16 01:15:49;;;;;;;10.07;4.65;;;;;;;5.54;100.00;100333.88;2631406;28;20048;-95
2023/12/16 01:17:05;;;;;;;8.30;4.28;;;;;;;5.40;100.00;100344.84;2632528;28;20089;-94
2023/12/16 01:18:21;;;;;;;9.30;4.88;;;;;;;5.43;100.00;100341.44;2631201;28;20552;-94
2023/12/16 01:19:36;;;;;;;9.50;4.60;;;;;;;5.46;100.00;100345.00;2625239;28;20048;-96
2023/12/16 01:20:52;;;;;;;10.07;4.57;;;;;;;5.37;100.00;100344.78;2609133;28;20053;-94
2023/12/16 01:22:08;;;;;;;11.13;4.60;;;;;;;5.19;100.00;100350.38;2615246;28;20056;-95
2023/12/16 01:23:23;;;;;;;8.98;4.53;;;;;;;5.13;100.00;100350.25;2625598;28;20040;-95
2023/12/16 01:24:39;;;;;;;8.80;4.32;;;;;;;5.04;100.00;100343.97;2631770;28;20044;-95
2023/12/16 01:25:55;;;;;;;9.35;4.00;;;;;;;4.86;100.00;100346.09;2619928;28;20052;-94
2023/12/16 01:27:10;;;;;;;10.15;4.43;;;;;;;5.39;100.00;100345.69;2621792;28;20097;-96
2023/12/16 01:28:26;;;;;;;9.45;4.43;;;;;;;5.28;100.00;100340.22;2625845;28;20134;-95
2023/12/16 01:29:42;;;;;;;8.90;4.85;;;;;;;5.31;100.00;100349.81;2619994;28;20040;-96
2023/12/16 01:30:57;;;;;;;10.93;4.88;;;;;;;5.41;100.00;100333.59;2623020;28;20055;-96
2023/12/16 01:32:13;;;;;;;8.90;4.72;;;;;;;5.27;100.00;100343.69;2631882;28;20046;-94
2023/12/16 01:33:29;;;;;;;8.75;4.68;;;;;;;5.35;100.00;100347.31;2630219;28;20052;-96
2023/12/16 01:34:44;;;;;;;10.48;4.82;;;;;;;5.42;100.00;100355.28;2623366;28;20044;-95
2023/12/16 01:36:00;;;;;;;8.93;4.78;;;;;;;5.47;100.00;100354.53;2619437;28;20051;-96
2023/12/16 01:37:16;;;;;;;12.23;5.22;;;;;;;5.43;100.00;100347.50;2610824;28;20621;-95
2023/12/16 01:38:31;;;;;;;8.85;4.53;;;;;;;5.46;100.00;100345.00;2618826;28;20044;-94
2023/12/16 01:39:47;;;;;;;10.13;4.72;;;;;;;5.42;100.00;100352.69;2621102;28;20056;-94
2023/12/16 01:41:03;;;;;;;13.73;5.78;;;;;;;5.30;100.00;100345.44;2613077;28;20059;-95
2023/12/16 01:42:18;;;;;;;12.68;5.47;;;;;;;5.31;100.00;100345.50;2612497;28;20114;-95
2023/12/16 01:43:34;;;;;;;10.98;5.53;;;;;;;5.36;100.00;100345.63;2608293;28;20046;-94
2023/12/16 01:44:49;;;;;;;9.63;5.00;;;;;;;5.41;100.00;100356.97;2625160;28;20055;-94
2023/12/16 01:46:05;;;;;;;9.25;4.30;;;;;;;5.46;100.00;100350.19;2614639;28;20052;-94
2023/12/16 01:47:21;;;;;;;10.70;4.90;;;;;;;5.35;100.00;100352.50;2619037;28;20075;-94
2023/12/16 01:48:36;;;;;;;8.23;4.65;;;;;;;5.45;100.00;100356.22;2614422;28;20052;-95
2023/12/16 01:49:52;;;;;;;11.32;5.47;;;;;;;5.45;100.00;100358.84;2618604;28;20051;-95
2023/12/16 01:51:09;;;;;;;10.75;5.85;;;;;;;5.28;100.00;100349.72;2631216;28;20998;-94
2023/12/16 01:52:25;;;;;;;9.63;5.47;;;;;;;5.41;100.00;100356.13;2631019;28;20082;-94
2023/12/16 01:53:41;;;;;;;12.68;5.10;;;;;;;5.54;100.00;100352.97;2620368;28;20059;-95
2023/12/16 01:54:57;;;;;;;11.52;5.47;;;;;;;5.55;100.00;100359.03;2628053;28;20040;-95
2023/12/16 01:56:13;;;;;;;11.00;6.15;;;;;;;5.45;100.00;100353.63;2631373;28;20051;-94
2023/12/16 01:57:28;;;;;;;10.55;5.28;;;;;;;5.44;100.00;100351.84;2624872;28;20526;-93
2023/12/16 01:58:44;;;;;;;12.30;5.32;;;;;;;5.46;100.00;100351.91;2613868;28;20056;-95
2023/12/16 02:00:00;;;;;;;12.35;4.95;;;;;;;5.34;100.00;100352.50;2608318;28;20048;-95
2023/12/16 02:01:16;;;;;;;11.55;5.43;;;;;;;5.26;100.00;100352.31;2618436;28;20077;-94
2023/12/16 02:02:32;;;;;;;11.07;5.43;;;;;;;5.13;100.00;100351.09;2625350;28;20040;-95
2023/12/16 02:03:50;;;;;;;8.77;4.78;;;;;;;5.38;100.00;100356.91;2635080;28;20050;-94
2023/12/16 02:05:09;;;;;;;13.18;5.38;;;;;;;5.30;100.00;100359.31;2630879;28;20066;-95
2023/12/16 02:06:26;;;;;;;8.50;4.93;;;;;;;5.30;100.00;100361.91;2628468;28;20074;-95
2023/12/16 02:07:43;;;;;;;8.90;4.60;;;;;;;5.27;100.00;100366.16;2635655;28;20526;-94
2023/12/16 02:08:58;;;;;;;9.65;4.93;;;;;;;5.16;100.00;100366.75;2637554;28;20075;-95
2023/12/16 02:10:14;;;;;;;11.95;5.18;;;;;;;5.04;100.00;100371.66;2631450;28;20082;-94
2023/12/16 02:11:30;;;;;;;10.52;4.88;;;;;;;4.90;100.00;100372.19;2629369;28;20104;-96
2023/12/16 02:12:45;;;;;;;9.77;5.05;;;;;;;5.00;100.00;100375.00;2627965;28;20044;-95
2023/12/16 02:14:01;;;;;;;12.02;5.47;;;;;;;4.98;100.00;100382.75;2620999;28;20056;-94
2023/12/16 02:15:17;;;;;;;13.02;5.55;;;;;;;5.03;100.00;100375.06;2618330;28;20052;-95
2023/12/16 02:16:33;;;;;;;12.00;5.68;;;;;;;4.90;100.00;100384.28;2624572;28;20465;-94
2023/12/16 02:17:49;;;;;;;11.98;5.18;;;;;;;5.06;100.00;100383.81;2624465;28;20432;-95
2023/12/16 02:19:11;;;;;;;10.80;5.28;;;;;;;5.34;100.00;100376.72;2625173;28;20265;-94
2023/12/16 02:20:26;;;;;;;10.45;4.88;;;;;;;5.31;100.00;100378.41;2630677;28;20040;-94
2023/12/16 02:21:42;;;;;;;10.43;5.30;;;;;;;5.35;100.00;100373.28;2624142;28;20060;-94
2023/12/16 02:23:00;;;;;;;10.48;4.53;;;;;;;5.32;100.00;100375.81;2624497;28;20315;-95
2023/12/16 02:24:16;;;;;;;10.00;5.10;;;;;;;5.27;100.00;100376.53;2631695;28;20051;-94
2023/12/16 02:25:31;;;;;;;12.23;4.95;;;;;;;5.40;100.00;100381.19;2631085;28;20040;-94
2023/12/16 02:26:47;;;;;;;11.73;5.10;;;;;;;5.46;100.00;100378.78;2631223;28;20044;-94
2023/12/16 02:28:03;;;;;;;9.77;5.07;;;;;;;5.40;100.00;100388.13;2618331;28;20095;-95
2023/12/16 02:29:19;;;;;;;11.65;4.93;;;;;;;5.43;100.00;100385.59;2621461;28;20453;-94
2023/12/16 02:30:34;;;;;;;10.55;4.93;;;;;;;5.32;100.00;100394.00;2631119;28;20051;-95
2023/12/16 02:31:50;;;;;;;11.30;5.45;;;;;;;5.32;100.00;100395.75;2630582;28;20050;-95
2023/12/16 02:33:05;;;;;;;10.45;4.57;;;;;;;5.29;100.00;100400.81;2614242;28;20060;-95
2023/12/16 02:34:23;;;;;;;9.55;4.82;;;;;;;5.11;100.00;100396.94;2618357;28;20048;-94
2023/12/16 02:35:39;;;;;;;12.65;5.60;;;;;;;5.30;100.00;100392.19;2624800;28;20224;-95
2023/12/16 02:36:55;;;;;;;9.82;4.90;;;;;;;5.18;100.00;100396.25;2631118;28;20059;-95
2023/12/16 02:38:10;;;;;;;11.52;4.60;;;;;;;5.33;100.00;100402.69;2630428;28;20048;-95
2023/12/16 02:39:26;;;;;;;14.45;5.28;;;;;;;5.49;100.00;100401.31;2624807;28;20077;-95
2023/12/16 02:40:42;;;;;;;8.75;4.35;;;;;;;5.30;100.00;100397.38;2630702;28;20123;-95
2023/12/16 02:41:58;;;;;;;9.85;4.78;;;;;;;5.19;100.00;100392.81;2624602;28;20101;-94
2023/12/16 02:43:14;;;;;;;9.77;4.38;;;;;;;5.22;100.00;100392.91;2624252;28;20048;-94
2023/12/16 02:44:30;;;;;;;6.63;4.40;;;;;;;5.11;100.00;100381.34;2630602;28;20051;-95
2023/12/16 02:45:45;;;;;;;10.05;4.80;;;;;;;5.09;100.00;100381.31;2624367;28;20596;-94
2023/12/16 02:47:01;;;;;;;11.05;4.97;;;;;;;5.04;100.00;100387.25;2624239;28;20056;-95
2023/12/16 02:48:16;;;;;;;13.70;4.82;;;;;;;5.17;100.00;100376.34;2624442;28;20048;-95
2023/12/16 02:49:32;;;;;;;10.30;5.15;;;;;;;5.26;100.00;100373.09;2620502;28;20056;-95
2023/12/16 02:50:47;;;;;;;8.52;4.70;;;;;;;5.07;100.00;100371.75;2617578;28;20047;-95
2023/12/16 02:52:03;;;;;;;8.80;4.75;;;;;;;5.08;100.00;100373.50;2624284;28;20044;-96
2023/12/16 02:53:19;;;;;;;8.63;4.38;;;;;;;5.11;100.00;100375.31;2614295;28;20072;-95
2023/12/16 02:54:34;;;;;;;9.30;5.00;;;;;;;5.23;100.00;100372.97;2597903;28;20091;-95
2023/12/16 02:55:50;;;;;;;8.48;4.68;;;;;;;5.33;100.00;100374.13;2611904;28;20044;-95
2023/12/16 02:57:08;;;;;;;8.65;5.15;;;;;;;5.41;100.00;100377.75;2630205;28;20058;-95
2023/12/16 02:58:24;;;;;;;10.65;5.70;;;;;;;5.54;100.00;100372.88;2630772;28;20040;-94
2023/12/16 02:59:39;;;;;;;11.02;4.28;;;;;;;5.54;100.00;100375.47;2631334;28;20063;-94
2023/12/16 03:00:55;;;;;;;10.40;4.95;;;;;;;5.51;100.00;100379.75;2629759;28;20052;-95
2023/12/16 03:02:11;;;;;;;9.13;4.40;;;;;;;5.54;100.00;100380.66;2624136;28;20059;-95
2023/12/16 03:03:26;;;;;;;8.32;4.35;;;;;;;5.47;100.00;100372.72;2631202;28;20051;-95
2023/12/16 03:04:43;;;;;;;11.40;4.90;;;;;;;5.50;100.00;100367.59;2630530;28;20160;-95
2023/12/16 03:06:08;;;;;;;8.75;4.72;;;;;;;5.34;100.00;100374.13;2630429;28;20138;-95
2023/12/16 03:07:24;;;;;;;9.15;4.43;;;;;;;5.21;100.00;100369.47;2631192;28;20096;-95
2023/12/16 03:08:40;;;;;;;9.77;4.57;;;;;;;5.27;100.00;100371.34;2630643;28;20554;-95
2023/12/16 03:09:55;;;;;;;8.48;4.22;;;;;;;5.28;100.00;100373.09;2623937;28;20050;-95
2023/12/16 03:11:11;;;;;;;10.60;4.40;;;;;;;5.33;100.00;100364.59;2613980;28;20049;-96
2023/12/16 03:12:27;;;;;;;8.48;3.83;;;;;;;5.00;100.00;100359.44;2618829;28;20107;-95
2023/12/16 03:13:42;;;;;;;8.05;4.25;;;;;;;5.25;100.00;100360.06;2624197;28;20055;-95
2023/12/16 03:14:58;;;;;;;9.13;4.25;;;;;;;5.28;100.00;100362.72;2630439;28;20073;-95
2023/12/16 03:16:14;;;;;;;9.70;4.55;;;;;;;5.28;100.00;100362.72;2630796;28;20122;-95
2023/12/16 03:17:29;;;;;;;10.93;4.43;;;;;;;5.42;100.00;100373.47;2631200;28;20040;-94
2023/12/16 03:18:45;;;;;;;8.77;4.00;;;;;;;5.35;100.00;100377.63;2641318;28;20044;-95
2023/12/16 03:20:01;;;;;;;7.55;4.07;;;;;;;5.14;100.00;100375.38;2620014;28;20053;-96
2023/12/16 03:21:16;;;;;;;7.38;4.15;;;;;;;5.14;100.00;100372.78;2624650;28;20062;-96
2023/12/16 03:22:33;;;;;;;8.10;4.57;;;;;;;5.09;100.00;100370.06;2630618;28;20048;-95
2023/12/16 03:23:49;;;;;;;7.38;4.03;;;;;;;5.13;100.00;100371.88;2625161;28;20107;-95
2023/12/16 03:25:05;;;;;;;7.30;4.03;;;;;;;5.05;100.00;100370.81;2620668;28;20106;-95
2023/12/16 03:26:20;;;;;;;7.93;3.90;;;;;;;5.50;100.00;100370.19;2623425;28;20477;-94
2023/12/16 03:27:36;;;;;;;8.55;4.47;;;;;;;5.62;100.00;100372.19;2627655;28;20040;-93
2023/12/16 03:28:52;;;;;;;8.90;4.88;;;;;;;5.72;100.00;100375.03;2631119;28;20526;-94
2023/12/16 03:30:07;;;;;;;8.82;4.07;;;;;;;5.76;100.00;100374.25;2630250;28;20044;-94
2023/12/16 03:31:23;;;;;;;9.55;4.07;;;;;;;5.57;100.00;100385.91;2624734;28;20036;-93
2023/12/16 03:32:39;;;;;;;8.70;4.32;;;;;;;5.43;100.00;100385.59;2624387;28;20385;-94
2023/12/16 03:33:54;;;;;;;10.13;3.67;;;;;;;5.56;100.00;100386.75;2624476;28;20044;-93
2023/12/16 03:35:10;;;;;;;9.23;4.70;;;;;;;5.32;100.00;100394.00;2624077;28;20059;-94
2023/12/16 03:36:27;;;;;;;10.48;3.90;;;;;;;5.32;100.00;100398.34;2624208;28;20066;-94
2023/12/16 03:37:43;;;;;;;9.45;4.30;;;;;;;5.50;100.00;100397.88;2630743;28;20044;-93
2023/12/16 03:38:58;;;;;;;7.93;4.03;;;;;;;5.44;100.00;100401.22;2630525;28;20510;-95
2023/12/16 03:40:14;;;;;;;7.95;3.83;;;;;;;5.45;100.00;100400.41;2620408;28;20055;-93
2023/12/16 03:41:30;;;;;;;7.75;3.55;;;;;;;5.41;100.00;100405.47;2620444;28;20052;-96
2023/12/16 03:42:45;;;;;;;9.23;3.50;;;;;;;5.39;100.00;100405.44;2624235;28;20071;-94
2023/12/16 03:44:01;;;;;;;7.88;3.78;;;;;;;5.56;100.00;100400.66;2624410;28;20048;-94
2023/12/16 03:45:17;;;;;;;6.43;3.17;;;;;;;5.50;100.00;100403.97;2612970;28;20059;-93
2023/12/16 03:46:32;;;;;;;6.22;3.13;;;;;;;5.23;100.00;100409.34;2617733;28;20074;-93
2023/12/16 03:47:48;;;;;;;7.85;3.53;;;;;;;5.31;100.00;100409.56;2623785;28;20082;-93
2023/12/16 03:49:03;;;;;;;7.53;3.58;;;;;;;5.44;100.00;100409.00;2624324;28;20040;-94
2023/12/16 03:50:19;;;;;;;6.47;3.72;;;;;;;5.46;100.00;100406.47;2624014;28;20048;-94
2023/12/16 03:51:35;;;;;;;6.50;3.40;;;;;;;5.57;100.00;100417.09;2630758;28;20113;-93
2023/12/16 03:52:50;;;;;;;6.82;3.35;;;;;;;5.45;100.00;100415.09;2631283;28;20044;-93
2023/12/16 03:54:06;;;;;;;8.40;3.75;;;;;;;5.37;100.00;100412.31;2619985;28;20044;-93
2023/12/16 03:55:22;;;;;;;9.50;4.20;;;;;;;5.32;100.00;100414.78;2618202;28;20043;-94
2023/12/16 03:56:37;;;;;;;7.60;4.05;;;;;;;5.42;100.00;100412.44;2623495;28;20051;-94
2023/12/16 03:57:53;;;;;;;9.88;3.88;;;;;;;5.28;100.00;100419.84;2630742;28;20052;-94
2023/12/16 03:59:09;;;;;;;8.07;3.83;;;;;;;5.38;100.00;100427.03;2614798;28;20052;-95
2023/12/16 04:00:24;;;;;;;9.45;4.40;;;;;;;5.57;100.00;100423.19;2615375;28;20048;-95
2023/12/16 04:01:44;;;;;;;6.82;3.80;;;;;;;5.67;100.00;100420.81;2630087;28;20040;-94
2023/12/16 04:03:01;;;;;;;5.68;3.42;;;;;;;5.73;100.00;100420.97;2614668;28;20440;-95
2023/12/16 04:04:16;;;;;;;7.63;3.83;;;;;;;5.67;100.00;100426.88;2617961;28;20043;-95
2023/12/16 04:05:32;;;;;;;6.70;3.30;;;;;;;5.61;100.00;100430.22;2613646;28;20048;-93
2023/12/16 04:06:48;;;;;;;6.57;3.30;;;;;;;5.57;100.00;100436.19;2617660;28;20044;-93
2023/12/16 04:08:03;;;;;;;6.95;3.38;;;;;;;5.55;100.00;100440.47;2613985;28;20048;-94
2023/12/16 04:09:19;;;;;;;8.05;3.95;;;;;;;5.56;100.00;100439.63;2624063;28;20075;-94
2023/12/16 04:10:35;;;;;;;6.30;3.45;;;;;;;5.66;100.00;100445.91;2613818;28;20052;-93
2023/12/16 04:11:50;;;;;;;6.97;3.65;;;;;;;5.45;100.00;100441.97;2618464;28;20040;-94
2023/12/16 04:13:06;;;;;;;7.00;3.45;;;;;;;5.59;100.00;100447.50;2630286;28;20059;-95
2023/12/16 04:14:22;;;;;;;7.88;4.03;;;;;;;5.57;100.00;100446.56;2631053;28;20076;-94
2023/12/16 04:15:37;;;;;;;6.93;3.80;;;;;;;5.59;100.00;100442.28;2629964;28;20032;-94
2023/12/16 04:16:53;;;;;;;6.95;3.40;;;;;;;5.48;100.00;100443.75;2624146;28;20040;-94
2023/12/16 04:18:09;;;;;;;7.75;3.45;;;;;;;5.36;100.00;100442.59;2618041;28;20330;-96
2023/12/16 04:19:24;;;;;;;10.50;4.22;;;;;;;5.52;100.00;100432.59;2626847;28;20044;-94
2023/12/16 04:20:40;;;;;;;6.82;4.22;;;;;;;5.41;100.00;100431.44;2619593;28;20370;-94
2023/12/16 04:21:56;;;;;;;7.75;4.13;;;;;;;5.57;100.00;100430.09;2627951;28;20122;-94
2023/12/16 04:23:11;;;;;;;9.00;3.67;;;;;;;5.47;100.00;100427.28;2636228;28;20055;-95
2023/12/16 04:24:27;;;;;;;9.30;3.40;;;;;;;5.36;100.00;100429.59;2619394;28;20057;-94
2023/12/16 04:25:42;;;;;;;9.43;3.75;;;;;;;5.51;100.00;100420.44;2613010;28;20047;-94
2023/12/16 04:26:58;;;;;;;8.73;4.00;;;;;;;5.42;100.00;100421.06;2627505;28;20097;-93
2023/12/16 04:28:13;;;;;;;7.32;3.80;;;;;;;5.56;100.00;100425.75;2624335;28;20397;-95
2023/12/16 04:29:29;;;;;;;6.28;3.40;;;;;;;5.44;100.00;100419.41;2620993;28;20103;-93
2023/12/16 04:30:45;;;;;;;10.40;4.20;;;;;;;5.39;100.00;100421.00;2616669;28;20040;-94
2023/12/16 04:32:00;;;;;;;9.90;3.58;;;;;;;5.46;100.00;100409.94;2620091;28;20044;-94
2023/12/16 04:33:16;;;;;;;7.05;3.80;;;;;;;5.36;100.00;100411.41;2623777;28;20499;-95
2023/12/16 04:34:31;;;;;;;7.00;3.90;;;;;;;5.48;100.00;100416.06;2608619;28;20552;-94
2023/12/16 04:35:47;;;;;;;7.88;3.78;;;;;;;5.63;100.00;100412.94;2614231;28;20048;-94
2023/12/16 04:37:03;;;;;;;7.78;3.67;;;;;;;5.44;100.00;100415.94;2619147;28;20052;-95
2023/12/16 04:38:18;;;;;;;10.13;4.15;;;;;;;5.50;100.00;100416.06;2626508;28;20094;-94
2023/12/16 04:39:34;;;;;;;7.40;3.88;;;;;;;5.57;100.00;100414.50;2620062;28;20124;-95
2023/12/16 04:40:49;;;;;;;7.60;3.97;;;;;;;5.37;100.00;100414.91;2618399;28;20044;-94
2023/12/16 04:42:05;;;;;;;9.48;4.20;;;;;;;5.20;100.00;100420.56;2623741;28;20059;-95
2023/12/16 04:43:20;;;;;;;10.10;4.32;;;;;;;5.44;100.00;100424.59;2624235;28;20101;-93
2023/12/16 04:44:37;;;;;;;7.15;4.03;;;;;;;5.43;100.00;100428.03;2630376;28;20438;-93
2023/12/16 04:45:53;;;;;;;7.90;3.75;;;;;;;5.58;100.00;100422.34;2630216;28;20481;-94
2023/12/16 04:47:08;;;;;;;7.32;3.53;;;;;;;5.60;100.00;100425.84;2629980;28;20044;-95
2023/12/16 04:48:24;;;;;;;6.10;3.50;;;;;;;5.40;100.00;100422.75;2630064;28;20044;-95
2023/12/16 04:49:40;;;;;;;7.53;3.55;;;;;;;5.27;100.00;100431.97;2623604;28;20094;-94
2023/12/16 04:50:56;;;;;;;9.32;3.67;;;;;;;5.49;100.00;100432.50;2630125;28;20044;-95
2023/12/16 04:52:12;;;;;;;8.57;3.78;;;;;;;5.44;100.00;100434.97;2629703;28;20048;-94
2023/12/16 04:53:27;;;;;;;6.43;3.53;;;;;;;5.31;100.00;100435.53;2626358;28;20098;-94
2023/12/16 04:54:44;;;;;;;9.63;3.88;;;;;;;5.14;100.00;100441.16;2613202;28;20057;-95
2023/12/16 04:56:01;;;;;;;8.13;4.15;;;;;;;5.29;100.00;100444.97;2617999;28;20494;-94
2023/12/16 04:57:17;;;;;;;7.55;3.60;;;;;;;5.11;100.00;100438.47;2619129;28;20044;-94
2023/12/16 04:58:33;;;;;;;9.52;3.58;;;;;;;5.05;100.00;100430.53;2610880;28;20524;-94
2023/12/16 04:59:49;;;;;;;6.07;3.40;;;;;;;4.93;100.00;100431.06;2618488;28;20086;-95
2023/12/16 05:01:05;;;;;;;7.18;3.88;;;;;;;5.02;100.00;100430.44;2607948;28;20044;-94
2023/12/16 05:02:20;;;;;;;8.80;4.38;;;;;;;5.15;100.00;100437.72;2614977;28;20051;-94
2023/12/16 05:03:38;;;;;;;8.18;4.90;;;;;;;5.14;100.00;100435.09;2629626;28;20073;-94
2023/12/16 05:04:54;;;;;;;8.27;3.80;;;;;;;5.08;100.00;100438.41;2640173;28;20071;-94
2023/12/16 05:06:09;;;;;;;8.43;4.05;;;;;;;5.19;100.00;100439.56;2629381;28;20490;-95
2023/12/16 05:07:25;;;;;;;7.82;3.75;;;;;;;5.17;100.00;100443.84;2629484;28;20036;-94
2023/12/16 05:08:41;;;;;;;9.57;4.00;;;;;;;5.15;100.00;100440.31;2631598;28;20063;-94
2023/12/16 05:09:57;;;;;;;6.65;3.55;;;;;;;5.01;100.00;100445.16;2620079;28;20036;-95
2023/12/16 05:11:13;;;;;;;7.85;3.65;;;;;;;5.11;100.00;100446.25;2622049;28;20051;-94
2023/12/16 05:12:30;;;;;;;8.57;4.00;;;;;;;5.11;100.00;100442.81;2624677;28;20050;-94
2023/12/16 05:13:45;;;;;;;8.55;4.28;;;;;;;5.20;100.00;100449.13;2632137;28;20048;-94
2023/12/16 05:15:04;;;;;;;7.57;3.78;;;;;;;5.00;100.00;100443.38;2632550;28;20073;-93
2023/12/16 05:16:20;;;;;;;8.13;3.78;;;;;;;5.03;100.00;100452.97;2631375;28;20133;-94
2023/12/16 05:17:36;;;;;;;9.10;4.10;;;;;;;5.13;100.00;100456.69;2631680;28;20032;-95
2023/12/16 05:18:52;;;;;;;8.45;3.55;;;;;;;5.22;100.00;100455.22;2631946;28;20048;-94
2023/12/16 05:20:07;;;;;;;9.45;4.13;;;;;;;5.28;100.00;100461.41;2625107;28;20052;-95
2023/12/16 05:21:23;;;;;;;7.18;3.50;;;;;;;5.31;100.00;100456.31;2619508;28;20123;-95
2023/12/16 05:22:39;;;;;;;6.53;3.63;;;;;;;5.36;100.00;100460.75;2622245;28;20085;-94
2023/12/16 05:23:54;;;;;;;8.35;3.63;;;;;;;5.36;100.00;100463.34;2625917;28;20048;-94
2023/12/16 05:25:10;;;;;;;7.25;3.65;;;;;;;5.28;100.00;100459.69;2622730;28;20047;-96
2023/12/16 05:26:26;;;;;;;8.13;3.95;;;;;;;5.34;100.00;100465.03;2615198;28;20131;-96
2023/12/16 05:27:41;;;;;;;6.00;3.35;;;;;;;5.31;100.00;100461.50;2624979;28;20044;-95
2023/12/16 05:28:57;;;;;;;7.80;4.00;;;;;;;5.29;100.00;100460.56;2619465;28;20080;-94
2023/12/16 05:30:13;;;;;;;8.15;3.45;;;;;;;5.28;100.00;100466.59;2621969;28;20043;-93
2023/12/16 05:31:28;;;;;;;6.97;4.15;;;;;;;5.22;100.00;100473.41;2631353;28;20051;-95
2023/12/16 05:32:44;;;;;;;7.55;3.83;;;;;;;5.20;100.00;100463.81;2624973;28;20051;-95
2023/12/16 05:34:00;;;;;;;6.38;3.67;;;;;;;5.09;100.00;100469.56;2625118;28;20575;-96
2023/12/16 05:35:16;;;;;;;5.22;3.25;;;;;;;5.14;100.00;100467.09;2621382;28;20048;-95
2023/12/16 05:36:31;;;;;;;6.57;3.65;;;;;;;5.16;100.00;100478.41;2617450;28;20118;-94
2023/12/16 05:37:48;;;;;;;7.47;3.40;;;;;;;5.11;100.00;100471.38;2625421;28;20053;-95
2023/12/16 05:39:03;;;;;;;5.65;3.28;;;;;;;5.08;100.00;100477.34;2625548;28;20169;-95
2023/12/16 05:40:19;;;;;;;5.88;3.25;;;;;;;5.12;100.00;100478.31;2625340;28;20126;-95
2023/12/16 05:41:35;;;;;;;8.02;3.30;;;;;;;5.10;100.00;100483.44;2619356;28;20075;-95
2023/12/16 05:42:50;;;;;;;8.68;3.50;;;;;;;4.95;100.00;100483.91;2622382;28;20036;-96
2023/12/16 05:44:06;;;;;;;7.22;3.35;;;;;;;4.97;100.00;100481.34;2609175;28;20555;-94
2023/12/16 05:45:22;;;;;;;7.45;3.08;;;;;;;4.96;100.00;100488.28;2614848;28;20040;-95
2023/12/16 05:46:37;;;;;;;6.22;3.45;;;;;;;4.98;100.00;100490.91;2614802;28;20056;-94
2023/12/16 05:47:53;;;;;;;6.78;3.50;;;;;;;4.90;100.00;100493.28;2624560;28;20530;-95
2023/12/16 05:49:09;;;;;;;6.25;3.80;;;;;;;4.81;100.00;100499.09;2630570;28;20529;-95
2023/12/16 05:50:24;;;;;;;7.28;3.42;;;;;;;4.82;100.00;100495.66;2625163;28;20040;-95
2023/12/16 05:51:41;;;;;;;6.10;3.60;;;;;;;4.81;100.00;100492.16;2624930;28;20048;-95